sensor_id;sensor_type;location;lat;lon;timestamp;P1;durP1;ratioP1;P2;durP2;ratioP2
26435;SDS011;15351;52.408;16.826;2023-06-10T00:00:21;12.30;;;8.30;;
26435;SDS011;15351;52.408;16.826;2023-06-10T00:03:12;11.10;;;8.80;;
26435;SDS011;15351;52.408;16.826;2023-06-10T00:06:02;15.30;;;8.90;;
26435;SDS011;15351;52.408;16.826;2023-06-10T00:08:34;15.20;;;8.90;;
26435;SDS011;15351;52.408;16.826;2023-06-10T00:11:08;10.50;;;8.90;;
26435;SDS011;15351;52.408;16.826;2023-06-10T00:13:44;11.20;;;9.30;;
26435;SDS011;15351;52.408;16.826;2023-06-10T00:16:19;12.00;;;9.60;;
26435;SDS011;15351;52.408;16.826;2023-06-10T00:18:55;11.80;;;9.20;;
26435;SDS011;15351;52.408;16.826;2023-06-10T00:21:46;13.50;;;8.90;;
26435;SDS011;15351;52.408;16.826;2023-06-10T00:24:35;12.10;;;9.20;;
26435;SDS011;15351;52.408;16.826;2023-06-10T00:27:11;15.30;;;8.70;;
26435;SDS011;15351;52.408;16.826;2023-06-10T00:29:37;14.50;;;9.00;;
26435;SDS011;15351;52.408;16.826;2023-06-10T00:32:08;11.00;;;8.70;;
26435;SDS011;15351;52.408;16.826;2023-06-10T00:34:46;13.00;;;9.00;;
26435;SDS011;15351;52.408;16.826;2023-06-10T00:37:20;12.40;;;8.90;;
26435;SDS011;15351;52.408;16.826;2023-06-10T00:42:59;12.60;;;8.50;;
26435;SDS011;15351;52.408;16.826;2023-06-10T00:48:45;14.30;;;8.20;;
26435;SDS011;15351;52.408;16.826;2023-06-10T00:51:59;11.30;;;8.00;;
26435;SDS011;15351;52.408;16.826;2023-06-10T00:55:15;10.90;;;7.80;;
26435;SDS011;15351;52.408;16.826;2023-06-10T00:58:13;14.30;;;8.20;;
26435;SDS011;15351;52.408;16.826;2023-06-10T01:00:57;12.00;;;8.10;;
26435;SDS011;15351;52.408;16.826;2023-06-10T01:03:29;12.50;;;7.90;;
26435;SDS011;15351;52.408;16.826;2023-06-10T01:09:33;13.90;;;7.90;;
26435;SDS011;15351;52.408;16.826;2023-06-10T01:12:34;13.70;;;8.00;;
26435;SDS011;15351;52.408;16.826;2023-06-10T01:15:20;14.50;;;7.70;;
26435;SDS011;15351;52.408;16.826;2023-06-10T01:17:58;12.90;;;7.70;;
26435;SDS011;15351;52.408;16.826;2023-06-10T01:20:30;11.10;;;7.50;;
26435;SDS011;15351;52.408;16.826;2023-06-10T01:22:59;13.30;;;7.70;;
26435;SDS011;15351;52.408;16.826;2023-06-10T01:25:27;13.70;;;7.80;;
26435;SDS011;15351;52.408;16.826;2023-06-10T01:28:04;12.30;;;7.60;;
26435;SDS011;15351;52.408;16.826;2023-06-10T01:34:48;11.10;;;7.40;;
26435;SDS011;15351;52.408;16.826;2023-06-10T01:37:23;10.90;;;6.80;;
26435;SDS011;15351;52.408;16.826;2023-06-10T01:39:52;11.60;;;7.60;;
26435;SDS011;15351;52.408;16.826;2023-06-10T01:42:28;14.70;;;7.80;;
26435;SDS011;15351;52.408;16.826;2023-06-10T01:45:14;11.40;;;7.40;;
26435;SDS011;15351;52.408;16.826;2023-06-10T01:47:47;13.70;;;7.40;;
26435;SDS011;15351;52.408;16.826;2023-06-10T01:50:42;10.90;;;7.60;;
26435;SDS011;15351;52.408;16.826;2023-06-10T01:53:49;12.60;;;7.60;;
26435;SDS011;15351;52.408;16.826;2023-06-10T01:59:18;14.00;;;7.70;;
26435;SDS011;15351;52.408;16.826;2023-06-10T02:02:27;12.00;;;7.60;;
26435;SDS011;15351;52.408;16.826;2023-06-10T02:05:24;12.90;;;7.60;;
26435;SDS011;15351;52.408;16.826;2023-06-10T02:08:44;11.50;;;7.50;;
26435;SDS011;15351;52.408;16.826;2023-06-10T02:15:24;10.20;;;7.10;;
26435;SDS011;15351;52.408;16.826;2023-06-10T02:18:11;15.40;;;7.80;;
26435;SDS011;15351;52.408;16.826;2023-06-10T02:20:43;11.40;;;7.60;;
26435;SDS011;15351;52.408;16.826;2023-06-10T02:23:31;11.30;;;7.50;;
26435;SDS011;15351;52.408;16.826;2023-06-10T02:29:44;11.70;;;7.60;;
26435;SDS011;15351;52.408;16.826;2023-06-10T02:32:30;12.80;;;7.90;;
26435;SDS011;15351;52.408;16.826;2023-06-10T02:35:59;15.10;;;8.10;;
26435;SDS011;15351;52.408;16.826;2023-06-10T02:45:12;11.30;;;7.80;;
26435;SDS011;15351;52.408;16.826;2023-06-10T02:47:58;11.00;;;7.50;;
26435;SDS011;15351;52.408;16.826;2023-06-10T02:54:15;11.00;;;7.60;;
26435;SDS011;15351;52.408;16.826;2023-06-10T02:57:38;12.00;;;7.60;;
26435;SDS011;15351;52.408;16.826;2023-06-10T03:01:08;10.60;;;7.70;;
26435;SDS011;15351;52.408;16.826;2023-06-10T03:04:41;11.80;;;7.60;;
26435;SDS011;15351;52.408;16.826;2023-06-10T03:10:41;9.20;;;7.40;;
26435;SDS011;15351;52.408;16.826;2023-06-10T03:13:53;12.20;;;7.70;;
26435;SDS011;15351;52.408;16.826;2023-06-10T03:16:52;12.30;;;8.10;;
26435;SDS011;15351;52.408;16.826;2023-06-10T03:19:36;11.90;;;7.90;;
26435;SDS011;15351;52.408;16.826;2023-06-10T03:22:29;11.40;;;7.60;;
26435;SDS011;15351;52.408;16.826;2023-06-10T03:25:02;12.30;;;7.70;;
26435;SDS011;15351;52.408;16.826;2023-06-10T03:27:41;10.30;;;7.70;;
26435;SDS011;15351;52.408;16.826;2023-06-10T03:30:26;14.60;;;8.00;;
26435;SDS011;15351;52.408;16.826;2023-06-10T03:33:35;14.00;;;7.40;;
26435;SDS011;15351;52.408;16.826;2023-06-10T03:36:08;13.00;;;7.60;;
26435;SDS011;15351;52.408;16.826;2023-06-10T03:41:38;11.10;;;7.60;;
26435;SDS011;15351;52.408;16.826;2023-06-10T03:44:15;12.60;;;7.60;;
26435;SDS011;15351;52.408;16.826;2023-06-10T03:46:42;11.20;;;7.60;;
26435;SDS011;15351;52.408;16.826;2023-06-10T03:49:09;11.50;;;7.40;;
26435;SDS011;15351;52.408;16.826;2023-06-10T03:51:44;12.10;;;7.20;;
26435;SDS011;15351;52.408;16.826;2023-06-10T03:54:19;12.40;;;7.40;;
26435;SDS011;15351;52.408;16.826;2023-06-10T03:56:46;10.80;;;7.30;;
26435;SDS011;15351;52.408;16.826;2023-06-10T03:59:14;9.00;;;7.40;;
26435;SDS011;15351;52.408;16.826;2023-06-10T04:02:03;10.80;;;7.40;;
26435;SDS011;15351;52.408;16.826;2023-06-10T04:04:35;12.70;;;7.70;;
26435;SDS011;15351;52.408;16.826;2023-06-10T04:07:07;11.40;;;7.20;;
26435;SDS011;15351;52.408;16.826;2023-06-10T04:09:46;10.40;;;7.50;;
26435;SDS011;15351;52.408;16.826;2023-06-10T04:12:27;10.80;;;7.60;;
26435;SDS011;15351;52.408;16.826;2023-06-10T04:15:12;10.50;;;7.70;;
26435;SDS011;15351;52.408;16.826;2023-06-10T04:17:58;14.10;;;7.60;;
26435;SDS011;15351;52.408;16.826;2023-06-10T04:20:35;11.50;;;7.20;;
26435;SDS011;15351;52.408;16.826;2023-06-10T04:23:07;11.30;;;8.10;;
26435;SDS011;15351;52.408;16.826;2023-06-10T04:25:50;12.60;;;8.00;;
26435;SDS011;15351;52.408;16.826;2023-06-10T04:28:35;11.40;;;7.40;;
26435;SDS011;15351;52.408;16.826;2023-06-10T04:31:34;13.30;;;8.00;;
26435;SDS011;15351;52.408;16.826;2023-06-10T04:34:32;12.10;;;7.50;;
26435;SDS011;15351;52.408;16.826;2023-06-10T04:37:09;13.30;;;7.40;;
26435;SDS011;15351;52.408;16.826;2023-06-10T04:40:17;12.80;;;7.70;;
26435;SDS011;15351;52.408;16.826;2023-06-10T04:43:08;12.20;;;7.30;;
26435;SDS011;15351;52.408;16.826;2023-06-10T04:45:45;12.90;;;7.60;;
26435;SDS011;15351;52.408;16.826;2023-06-10T04:48:12;12.70;;;7.70;;
26435;SDS011;15351;52.408;16.826;2023-06-10T04:50:39;13.90;;;7.30;;
26435;SDS011;15351;52.408;16.826;2023-06-10T04:53:11;14.50;;;7.60;;
26435;SDS011;15351;52.408;16.826;2023-06-10T04:55:47;10.00;;;7.10;;
26435;SDS011;15351;52.408;16.826;2023-06-10T04:58:30;11.00;;;7.20;;
26435;SDS011;15351;52.408;16.826;2023-06-10T05:01:02;10.90;;;7.00;;
26435;SDS011;15351;52.408;16.826;2023-06-10T05:03:29;9.80;;;6.90;;
26435;SDS011;15351;52.408;16.826;2023-06-10T05:05:57;15.40;;;7.00;;
26435;SDS011;15351;52.408;16.826;2023-06-10T05:08:47;10.60;;;6.60;;
26435;SDS011;15351;52.408;16.826;2023-06-10T05:11:35;11.90;;;6.90;;
26435;SDS011;15351;52.408;16.826;2023-06-10T05:14:07;11.10;;;6.80;;
26435;SDS011;15351;52.408;16.826;2023-06-10T05:16:37;12.50;;;6.60;;
26435;SDS011;15351;52.408;16.826;2023-06-10T05:19:33;11.00;;;6.40;;
26435;SDS011;15351;52.408;16.826;2023-06-10T05:22:17;19.40;;;6.90;;
26435;SDS011;15351;52.408;16.826;2023-06-10T05:25:02;10.30;;;6.40;;
26435;SDS011;15351;52.408;16.826;2023-06-10T05:27:49;15.20;;;6.60;;
26435;SDS011;15351;52.408;16.826;2023-06-10T05:30:46;10.20;;;6.60;;
26435;SDS011;15351;52.408;16.826;2023-06-10T05:36:21;10.70;;;6.20;;
26435;SDS011;15351;52.408;16.826;2023-06-10T05:38:52;13.70;;;6.50;;
26435;SDS011;15351;52.408;16.826;2023-06-10T05:41:51;13.90;;;6.50;;
26435;SDS011;15351;52.408;16.826;2023-06-10T05:44:37;15.60;;;6.50;;
26435;SDS011;15351;52.408;16.826;2023-06-10T05:47:12;13.00;;;6.80;;
26435;SDS011;15351;52.408;16.826;2023-06-10T05:50:06;13.70;;;6.30;;
26435;SDS011;15351;52.408;16.826;2023-06-10T05:53:09;13.50;;;6.70;;
26435;SDS011;15351;52.408;16.826;2023-06-10T05:55:46;15.30;;;6.40;;
26435;SDS011;15351;52.408;16.826;2023-06-10T05:58:19;16.80;;;6.40;;
26435;SDS011;15351;52.408;16.826;2023-06-10T06:00:51;14.10;;;6.30;;
26435;SDS011;15351;52.408;16.826;2023-06-10T06:04:01;13.30;;;6.60;;
26435;SDS011;15351;52.408;16.826;2023-06-10T06:09:34;12.00;;;6.30;;
26435;SDS011;15351;52.408;16.826;2023-06-10T06:12:35;12.50;;;6.50;;
26435;SDS011;15351;52.408;16.826;2023-06-10T06:15:37;11.70;;;6.30;;
26435;SDS011;15351;52.408;16.826;2023-06-10T06:18:17;10.00;;;6.00;;
26435;SDS011;15351;52.408;16.826;2023-06-10T06:24:22;12.10;;;6.30;;
26435;SDS011;15351;52.408;16.826;2023-06-10T06:27:41;23.00;;;6.90;;
26435;SDS011;15351;52.408;16.826;2023-06-10T06:33:43;13.00;;;6.30;;
26435;SDS011;15351;52.408;16.826;2023-06-10T06:39:48;9.00;;;5.80;;
26435;SDS011;15351;52.408;16.826;2023-06-10T06:50:09;13.10;;;6.10;;
26435;SDS011;15351;52.408;16.826;2023-06-10T06:56:06;11.70;;;5.90;;
26435;SDS011;15351;52.408;16.826;2023-06-10T06:58:33;10.20;;;5.70;;
26435;SDS011;15351;52.408;16.826;2023-06-10T07:05:08;10.30;;;5.80;;
26435;SDS011;15351;52.408;16.826;2023-06-10T07:11:09;9.40;;;6.20;;
26435;SDS011;15351;52.408;16.826;2023-06-10T07:13:51;13.80;;;6.30;;
26435;SDS011;15351;52.408;16.826;2023-06-10T07:16:20;10.90;;;6.00;;
26435;SDS011;15351;52.408;16.826;2023-06-10T07:18:47;8.40;;;5.90;;
26435;SDS011;15351;52.408;16.826;2023-06-10T07:21:13;10.40;;;5.80;;
26435;SDS011;15351;52.408;16.826;2023-06-10T07:23:43;12.10;;;5.90;;
26435;SDS011;15351;52.408;16.826;2023-06-10T07:26:12;9.90;;;5.50;;
26435;SDS011;15351;52.408;16.826;2023-06-10T07:28:42;8.70;;;5.80;;
26435;SDS011;15351;52.408;16.826;2023-06-10T07:32:13;13.60;;;6.10;;
26435;SDS011;15351;52.408;16.826;2023-06-10T07:35:18;11.10;;;5.60;;
26435;SDS011;15351;52.408;16.826;2023-06-10T07:42:34;10.40;;;5.60;;
26435;SDS011;15351;52.408;16.826;2023-06-10T07:52:14;10.40;;;5.50;;
26435;SDS011;15351;52.408;16.826;2023-06-10T08:08:14;9.90;;;5.70;;
26435;SDS011;15351;52.408;16.826;2023-06-10T08:11:05;10.90;;;5.70;;
26435;SDS011;15351;52.408;16.826;2023-06-10T08:21:13;9.30;;;5.00;;
26435;SDS011;15351;52.408;16.826;2023-06-10T08:31:11;11.40;;;5.30;;
26435;SDS011;15351;52.408;16.826;2023-06-10T08:33:43;10.30;;;5.60;;
26435;SDS011;15351;52.408;16.826;2023-06-10T08:36:25;11.20;;;5.20;;
26435;SDS011;15351;52.408;16.826;2023-06-10T08:39:09;10.60;;;5.10;;
26435;SDS011;15351;52.408;16.826;2023-06-10T08:44:55;12.60;;;5.40;;
26435;SDS011;15351;52.408;16.826;2023-06-10T08:47:31;11.10;;;5.20;;
26435;SDS011;15351;52.408;16.826;2023-06-10T08:50:11;10.30;;;5.10;;
26435;SDS011;15351;52.408;16.826;2023-06-10T08:53:01;9.80;;;5.20;;
26435;SDS011;15351;52.408;16.826;2023-06-10T08:55:35;9.40;;;4.70;;
26435;SDS011;15351;52.408;16.826;2023-06-10T08:58:50;11.10;;;4.50;;
26435;SDS011;15351;52.408;16.826;2023-06-10T09:01:33;9.30;;;4.90;;
26435;SDS011;15351;52.408;16.826;2023-06-10T09:04:07;12.60;;;4.70;;
26435;SDS011;15351;52.408;16.826;2023-06-10T09:10:27;14.00;;;5.00;;
26435;SDS011;15351;52.408;16.826;2023-06-10T09:13:06;8.30;;;4.50;;
26435;SDS011;15351;52.408;16.826;2023-06-10T09:16:05;8.10;;;4.60;;
26435;SDS011;15351;52.408;16.826;2023-06-10T09:21:56;16.20;;;5.20;;
26435;SDS011;15351;52.408;16.826;2023-06-10T09:24:55;10.20;;;4.70;;
26435;SDS011;15351;52.408;16.826;2023-06-10T09:28:00;9.70;;;4.70;;
26435;SDS011;15351;52.408;16.826;2023-06-10T09:30:28;7.60;;;4.40;;
26435;SDS011;15351;52.408;16.826;2023-06-10T09:36:44;9.40;;;4.60;;
26435;SDS011;15351;52.408;16.826;2023-06-10T09:46:04;10.80;;;5.00;;
26435;SDS011;15351;52.408;16.826;2023-06-10T09:49:15;13.30;;;5.10;;
26435;SDS011;15351;52.408;16.826;2023-06-10T09:52:11;9.60;;;4.90;;
26435;SDS011;15351;52.408;16.826;2023-06-10T09:55:17;7.70;;;4.60;;
26435;SDS011;15351;52.408;16.826;2023-06-10T09:58:42;7.90;;;4.90;;
26435;SDS011;15351;52.408;16.826;2023-06-10T10:02:21;7.80;;;4.80;;
26435;SDS011;15351;52.408;16.826;2023-06-10T10:08:06;7.50;;;4.70;;
26435;SDS011;15351;52.408;16.826;2023-06-10T10:31:39;8.00;;;4.60;;
26435;SDS011;15351;52.408;16.826;2023-06-10T10:39:24;9.90;;;4.70;;
26435;SDS011;15351;52.408;16.826;2023-06-10T10:42:33;9.10;;;4.70;;
26435;SDS011;15351;52.408;16.826;2023-06-10T10:45:01;8.40;;;4.50;;
26435;SDS011;15351;52.408;16.826;2023-06-10T10:55:08;9.70;;;4.90;;
26435;SDS011;15351;52.408;16.826;2023-06-10T10:58:35;10.30;;;4.90;;
26435;SDS011;15351;52.408;16.826;2023-06-10T11:32:00;8.80;;;4.90;;
26435;SDS011;15351;52.408;16.826;2023-06-10T11:34:34;8.40;;;4.70;;
26435;SDS011;15351;52.408;16.826;2023-06-10T11:37:26;7.70;;;4.70;;
26435;SDS011;15351;52.408;16.826;2023-06-10T11:51:12;9.20;;;4.70;;
26435;SDS011;15351;52.408;16.826;2023-06-10T11:53:51;6.50;;;4.60;;
26435;SDS011;15351;52.408;16.826;2023-06-10T11:56:43;20.80;;;5.80;;
26435;SDS011;15351;52.408;16.826;2023-06-10T11:59:39;21.60;;;5.30;;
26435;SDS011;15351;52.408;16.826;2023-06-10T12:03:03;40.20;;;7.00;;
26435;SDS011;15351;52.408;16.826;2023-06-10T12:05:39;39.00;;;6.60;;
26435;SDS011;15351;52.408;16.826;2023-06-10T12:11:19;13.00;;;4.70;;
26435;SDS011;15351;52.408;16.826;2023-06-10T12:17:19;9.50;;;4.80;;
26435;SDS011;15351;52.408;16.826;2023-06-10T12:30:32;7.80;;;4.50;;
26435;SDS011;15351;52.408;16.826;2023-06-10T12:33:31;11.00;;;4.80;;
26435;SDS011;15351;52.408;16.826;2023-06-10T12:44:04;6.50;;;4.40;;
26435;SDS011;15351;52.408;16.826;2023-06-10T12:47:46;9.30;;;4.30;;
26435;SDS011;15351;52.408;16.826;2023-06-10T12:53:43;7.70;;;4.50;;
26435;SDS011;15351;52.408;16.826;2023-06-10T12:57:19;8.00;;;4.00;;
26435;SDS011;15351;52.408;16.826;2023-06-10T13:00:06;9.50;;;4.60;;
26435;SDS011;15351;52.408;16.826;2023-06-10T13:13:47;7.70;;;4.40;;
26435;SDS011;15351;52.408;16.826;2023-06-10T13:16:48;7.50;;;4.30;;
26435;SDS011;15351;52.408;16.826;2023-06-10T13:24:25;9.80;;;4.20;;
26435;SDS011;15351;52.408;16.826;2023-06-10T13:27:02;7.90;;;4.10;;
26435;SDS011;15351;52.408;16.826;2023-06-10T13:29:59;6.50;;;4.20;;
26435;SDS011;15351;52.408;16.826;2023-06-10T13:39:41;6.40;;;4.10;;
26435;SDS011;15351;52.408;16.826;2023-06-10T13:45:32;7.10;;;3.90;;
26435;SDS011;15351;52.408;16.826;2023-06-10T13:48:50;15.00;;;3.90;;
26435;SDS011;15351;52.408;16.826;2023-06-10T13:51:50;11.20;;;4.10;;
26435;SDS011;15351;52.408;16.826;2023-06-10T13:59:03;10.00;;;4.10;;
26435;SDS011;15351;52.408;16.826;2023-06-10T14:02:02;8.80;;;4.10;;
26435;SDS011;15351;52.408;16.826;2023-06-10T14:05:45;9.30;;;4.10;;
26435;SDS011;15351;52.408;16.826;2023-06-10T14:13:25;5.20;;;3.70;;
26435;SDS011;15351;52.408;16.826;2023-06-10T14:16:37;7.20;;;3.80;;
26435;SDS011;15351;52.408;16.826;2023-06-10T14:19:38;6.10;;;3.80;;
26435;SDS011;15351;52.408;16.826;2023-06-10T14:23:01;9.30;;;3.60;;
26435;SDS011;15351;52.408;16.826;2023-06-10T14:29:51;6.90;;;3.60;;
26435;SDS011;15351;52.408;16.826;2023-06-10T14:33:24;15.20;;;3.80;;
26435;SDS011;15351;52.408;16.826;2023-06-10T14:37:20;7.50;;;3.80;;
26435;SDS011;15351;52.408;16.826;2023-06-10T14:47:41;7.60;;;3.90;;
26435;SDS011;15351;52.408;16.826;2023-06-10T14:51:14;9.70;;;3.80;;
26435;SDS011;15351;52.408;16.826;2023-06-10T14:54:19;16.00;;;4.60;;
26435;SDS011;15351;52.408;16.826;2023-06-10T15:01:09;8.30;;;3.80;;
26435;SDS011;15351;52.408;16.826;2023-06-10T15:04:22;6.40;;;3.80;;
26435;SDS011;15351;52.408;16.826;2023-06-10T15:06:55;12.10;;;3.90;;
26435;SDS011;15351;52.408;16.826;2023-06-10T15:10:28;13.60;;;3.90;;
26435;SDS011;15351;52.408;16.826;2023-06-10T15:13:28;8.90;;;4.00;;
26435;SDS011;15351;52.408;16.826;2023-06-10T15:17:16;10.50;;;4.00;;
26435;SDS011;15351;52.408;16.826;2023-06-10T15:23:13;7.10;;;3.70;;
26435;SDS011;15351;52.408;16.826;2023-06-10T15:28:55;11.10;;;3.70;;
26435;SDS011;15351;52.408;16.826;2023-06-10T15:32:11;8.90;;;3.70;;
26435;SDS011;15351;52.408;16.826;2023-06-10T15:35:09;6.90;;;3.60;;
26435;SDS011;15351;52.408;16.826;2023-06-10T15:37:58;8.50;;;3.60;;
26435;SDS011;15351;52.408;16.826;2023-06-10T15:41:02;8.00;;;3.40;;
26435;SDS011;15351;52.408;16.826;2023-06-10T15:44:03;7.20;;;3.50;;
26435;SDS011;15351;52.408;16.826;2023-06-10T15:46:34;9.20;;;3.70;;
26435;SDS011;15351;52.408;16.826;2023-06-10T15:49:24;4.90;;;3.50;;
26435;SDS011;15351;52.408;16.826;2023-06-10T15:53:14;8.00;;;3.50;;
26435;SDS011;15351;52.408;16.826;2023-06-10T16:00:41;10.10;;;3.50;;
26435;SDS011;15351;52.408;16.826;2023-06-10T16:07:42;10.00;;;4.60;;
26435;SDS011;15351;52.408;16.826;2023-06-10T16:17:45;9.40;;;4.30;;
26435;SDS011;15351;52.408;16.826;2023-06-10T16:22:01;11.30;;;5.60;;
26435;SDS011;15351;52.408;16.826;2023-06-10T16:25:10;10.60;;;4.00;;
26435;SDS011;15351;52.408;16.826;2023-06-10T16:37:54;10.40;;;6.60;;
26435;SDS011;15351;52.408;16.826;2023-06-10T16:41:22;15.50;;;9.60;;
26435;SDS011;15351;52.408;16.826;2023-06-10T16:48:41;10.40;;;5.20;;
26435;SDS011;15351;52.408;16.826;2023-06-10T16:51:14;7.20;;;4.30;;
26435;SDS011;15351;52.408;16.826;2023-06-10T16:54:13;9.90;;;3.90;;
26435;SDS011;15351;52.408;16.826;2023-06-10T16:57:16;48.30;;;36.70;;
26435;SDS011;15351;52.408;16.826;2023-06-10T17:00:22;15.30;;;11.90;;
26435;SDS011;15351;52.408;16.826;2023-06-10T17:03:15;8.50;;;6.40;;
26435;SDS011;15351;52.408;16.826;2023-06-10T17:06:27;7.60;;;4.70;;
26435;SDS011;15351;52.408;16.826;2023-06-10T17:09:49;7.20;;;3.90;;
26435;SDS011;15351;52.408;16.826;2023-06-10T17:12:52;7.10;;;4.00;;
26435;SDS011;15351;52.408;16.826;2023-06-10T17:16:02;6.70;;;3.60;;
26435;SDS011;15351;52.408;16.826;2023-06-10T17:19:14;7.30;;;3.40;;
26435;SDS011;15351;52.408;16.826;2023-06-10T17:21:46;14.90;;;3.80;;
26435;SDS011;15351;52.408;16.826;2023-06-10T17:24:28;6.20;;;3.40;;
26435;SDS011;15351;52.408;16.826;2023-06-10T17:27:22;8.90;;;3.30;;
26435;SDS011;15351;52.408;16.826;2023-06-10T17:30:42;5.60;;;3.40;;
26435;SDS011;15351;52.408;16.826;2023-06-10T17:34:07;6.30;;;3.20;;
26435;SDS011;15351;52.408;16.826;2023-06-10T17:41:01;8.90;;;3.00;;
26435;SDS011;15351;52.408;16.826;2023-06-10T17:43:52;7.10;;;3.30;;
26435;SDS011;15351;52.408;16.826;2023-06-10T17:47:00;5.30;;;3.10;;
26435;SDS011;15351;52.408;16.826;2023-06-10T17:49:46;7.30;;;3.10;;
26435;SDS011;15351;52.408;16.826;2023-06-10T17:52:45;8.60;;;3.00;;
26435;SDS011;15351;52.408;16.826;2023-06-10T17:58:42;4.20;;;2.70;;
26435;SDS011;15351;52.408;16.826;2023-06-10T18:01:45;7.00;;;2.90;;
26435;SDS011;15351;52.408;16.826;2023-06-10T18:04:30;6.90;;;2.90;;
26435;SDS011;15351;52.408;16.826;2023-06-10T18:18:29;8.80;;;3.10;;
26435;SDS011;15351;52.408;16.826;2023-06-10T18:24:56;4.90;;;2.60;;
26435;SDS011;15351;52.408;16.826;2023-06-10T18:27:58;5.90;;;2.60;;
26435;SDS011;15351;52.408;16.826;2023-06-10T18:31:08;11.60;;;3.00;;
26435;SDS011;15351;52.408;16.826;2023-06-10T18:33:52;5.90;;;2.50;;
26435;SDS011;15351;52.408;16.826;2023-06-10T18:40:37;6.60;;;2.70;;
26435;SDS011;15351;52.408;16.826;2023-06-10T18:43:27;4.80;;;2.70;;
26435;SDS011;15351;52.408;16.826;2023-06-10T18:46:44;6.80;;;2.90;;
26435;SDS011;15351;52.408;16.826;2023-06-10T18:49:15;7.30;;;2.90;;
26435;SDS011;15351;52.408;16.826;2023-06-10T18:52:45;7.30;;;2.70;;
26435;SDS011;15351;52.408;16.826;2023-06-10T18:55:21;5.80;;;2.60;;
26435;SDS011;15351;52.408;16.826;2023-06-10T18:58:39;7.80;;;2.90;;
26435;SDS011;15351;52.408;16.826;2023-06-10T19:01:43;9.00;;;2.80;;
26435;SDS011;15351;52.408;16.826;2023-06-10T19:05:12;5.20;;;2.90;;
26435;SDS011;15351;52.408;16.826;2023-06-10T19:08:00;14.60;;;2.90;;
26435;SDS011;15351;52.408;16.826;2023-06-10T19:11:28;10.30;;;2.80;;
26435;SDS011;15351;52.408;16.826;2023-06-10T19:21:38;12.70;;;3.40;;
26435;SDS011;15351;52.408;16.826;2023-06-10T19:28:21;8.30;;;2.70;;
26435;SDS011;15351;52.408;16.826;2023-06-10T19:31:13;7.20;;;2.70;;
26435;SDS011;15351;52.408;16.826;2023-06-10T19:39:09;6.10;;;2.50;;
26435;SDS011;15351;52.408;16.826;2023-06-10T19:42:27;6.80;;;2.70;;
26435;SDS011;15351;52.408;16.826;2023-06-10T19:45:48;5.00;;;2.50;;
26435;SDS011;15351;52.408;16.826;2023-06-10T19:49:25;5.30;;;2.60;;
26435;SDS011;15351;52.408;16.826;2023-06-10T19:52:35;6.40;;;2.70;;
26435;SDS011;15351;52.408;16.826;2023-06-10T19:55:39;8.00;;;2.80;;
26435;SDS011;15351;52.408;16.826;2023-06-10T19:58:59;5.90;;;2.60;;
26435;SDS011;15351;52.408;16.826;2023-06-10T20:05:16;7.20;;;2.80;;
26435;SDS011;15351;52.408;16.826;2023-06-10T20:13:06;8.50;;;2.50;;
26435;SDS011;15351;52.408;16.826;2023-06-10T20:16:11;8.40;;;2.70;;
26435;SDS011;15351;52.408;16.826;2023-06-10T20:18:58;8.90;;;2.60;;
26435;SDS011;15351;52.408;16.826;2023-06-10T20:25:21;8.60;;;2.60;;
26435;SDS011;15351;52.408;16.826;2023-06-10T20:31:14;7.50;;;2.60;;
26435;SDS011;15351;52.408;16.826;2023-06-10T20:33:53;8.90;;;2.60;;
26435;SDS011;15351;52.408;16.826;2023-06-10T20:37:25;9.40;;;2.70;;
26435;SDS011;15351;52.408;16.826;2023-06-10T20:40:25;6.60;;;2.90;;
26435;SDS011;15351;52.408;16.826;2023-06-10T20:44:16;14.30;;;3.00;;
26435;SDS011;15351;52.408;16.826;2023-06-10T20:47:07;5.80;;;2.80;;
26435;SDS011;15351;52.408;16.826;2023-06-10T20:50:45;6.80;;;3.10;;
26435;SDS011;15351;52.408;16.826;2023-06-10T20:57:20;8.90;;;3.20;;
26435;SDS011;15351;52.408;16.826;2023-06-10T21:04:15;6.60;;;2.80;;
26435;SDS011;15351;52.408;16.826;2023-06-10T21:08:33;8.30;;;2.90;;
26435;SDS011;15351;52.408;16.826;2023-06-10T21:23:32;6.20;;;2.90;;
26435;SDS011;15351;52.408;16.826;2023-06-10T21:26:58;8.70;;;2.80;;
26435;SDS011;15351;52.408;16.826;2023-06-10T21:30:26;6.00;;;2.70;;
26435;SDS011;15351;52.408;16.826;2023-06-10T21:33:44;6.20;;;2.70;;
26435;SDS011;15351;52.408;16.826;2023-06-10T21:37:48;7.20;;;2.80;;
26435;SDS011;15351;52.408;16.826;2023-06-10T21:49:10;7.10;;;2.60;;
26435;SDS011;15351;52.408;16.826;2023-06-10T21:52:27;7.90;;;2.90;;
26435;SDS011;15351;52.408;16.826;2023-06-10T22:18:37;7.50;;;2.60;;
26435;SDS011;15351;52.408;16.826;2023-06-10T22:21:59;6.80;;;2.70;;
26435;SDS011;15351;52.408;16.826;2023-06-10T22:25:44;8.30;;;2.80;;
26435;SDS011;15351;52.408;16.826;2023-06-10T22:28:20;12.50;;;2.90;;
26435;SDS011;15351;52.408;16.826;2023-06-10T22:32:10;5.70;;;2.70;;
26435;SDS011;15351;52.408;16.826;2023-06-10T22:40:04;7.20;;;2.40;;
26435;SDS011;15351;52.408;16.826;2023-06-10T22:55:47;5.20;;;2.80;;
26435;SDS011;15351;52.408;16.826;2023-06-10T22:59:43;5.60;;;2.50;;
26435;SDS011;15351;52.408;16.826;2023-06-10T23:02:14;7.60;;;2.70;;
26435;SDS011;15351;52.408;16.826;2023-06-10T23:05:52;8.00;;;2.60;;
26435;SDS011;15351;52.408;16.826;2023-06-10T23:08:32;7.60;;;2.70;;
26435;SDS011;15351;52.408;16.826;2023-06-10T23:19:14;5.70;;;2.70;;
26435;SDS011;15351;52.408;16.826;2023-06-10T23:25:47;7.90;;;2.70;;
26435;SDS011;15351;52.408;16.826;2023-06-10T23:28:23;6.40;;;2.70;;
26435;SDS011;15351;52.408;16.826;2023-06-10T23:32:18;5.90;;;2.40;;
26435;SDS011;15351;52.408;16.826;2023-06-10T23:36:20;7.30;;;2.70;;
26435;SDS011;15351;52.408;16.826;2023-06-10T23:43:56;6.50;;;2.50;;
26435;SDS011;15351;52.408;16.826;2023-06-10T23:47:47;7.30;;;2.70;;
26435;SDS011;15351;52.408;16.826;2023-06-10T23:51:16;7.60;;;2.60;;
26435;SDS011;15351;52.408;16.826;2023-06-10T23:54:29;5.70;;;2.50;;
26435;SDS011;15351;52.408;16.826;2023-06-10T23:58:56;8.40;;;2.70;;
